地図

経路データ

SID SEASON NUMBER BASIN SUBBASIN NAME ISO_TIME NATURE LAT LON WMO_WIND WMO_PRES WMO_AGENCY TRACK_TYPE DIST2LAND LANDFALL IFLAG USA_AGENCY USA_ATCF_ID USA_LAT USA_LON USA_RECORD USA_STATUS USA_WIND USA_PRES USA_SSHS USA_R34_NE USA_R34_SE USA_R34_SW USA_R34_NW USA_R50_NE USA_R50_SE USA_R50_SW USA_R50_NW USA_R64_NE USA_R64_SE USA_R64_SW USA_R64_NW USA_POCI USA_ROCI USA_RMW USA_EYE TOKYO_LAT TOKYO_LON TOKYO_GRADE TOKYO_WIND TOKYO_PRES TOKYO_R50_DIR TOKYO_R50_LONG TOKYO_R50_SHORT TOKYO_R30_DIR TOKYO_R30_LONG TOKYO_R30_SHORT TOKYO_LAND CMA_LAT CMA_LON CMA_CAT CMA_WIND CMA_PRES HKO_LAT HKO_LON HKO_CAT HKO_WIND HKO_PRES NEWDELHI_LAT NEWDELHI_LON NEWDELHI_GRADE NEWDELHI_WIND NEWDELHI_PRES NEWDELHI_CI NEWDELHI_DP NEWDELHI_POCI REUNION_LAT REUNION_LON REUNION_TYPE REUNION_WIND REUNION_PRES REUNION_TNUM REUNION_CI REUNION_RMW REUNION_R34_NE REUNION_R34_SE REUNION_R34_SW REUNION_R34_NW REUNION_R50_NE REUNION_R50_SE REUNION_R50_SW REUNION_R50_NW REUNION_R64_NE REUNION_R64_SE REUNION_R64_SW REUNION_R64_NW BOM_LAT BOM_LON BOM_TYPE BOM_WIND BOM_PRES BOM_TNUM BOM_CI BOM_RMW BOM_R34_NE BOM_R34_SE BOM_R34_SW BOM_R34_NW BOM_R50_NE BOM_R50_SE BOM_R50_SW BOM_R50_NW BOM_R64_NE BOM_R64_SE BOM_R64_SW BOM_R64_NW BOM_ROCI BOM_POCI BOM_EYE BOM_POS_METHOD BOM_PRES_METHOD NADI_LAT NADI_LON NADI_CAT NADI_WIND NADI_PRES WELLINGTON_LAT WELLINGTON_LON WELLINGTON_WIND WELLINGTON_PRES DS824_LAT DS824_LON DS824_STAGE DS824_WIND DS824_PRES TD9636_LAT TD9636_LON TD9636_STAGE TD9636_WIND TD9636_PRES TD9635_LAT TD9635_LON TD9635_WIND TD9635_PRES TD9635_ROCI NEUMANN_LAT NEUMANN_LON NEUMANN_CLASS NEUMANN_WIND NEUMANN_PRES MLC_LAT MLC_LON MLC_CLASS MLC_WIND MLC_PRES USA_GUST BOM_GUST BOM_GUST_PER REUNION_GUST REUNION_GUST_PER USA_SEAHGT USA_SEARAD_NE USA_SEARAD_SE USA_SEARAD_SW USA_SEARAD_NW STORM_SPEED STORM_DIR
1958248N19117 1958 77 WP MM NOT_NAMED 1958-09-05 06:00:00 TS 19.0000 116.800 main 401 397 __O___________ -1 19.0000 116.800 1 23 1000 4 219
1958248N19117 1958 77 WP MM NOT_NAMED 1958-09-05 09:00:00 TS 18.8425 116.670 main 403 403 __P___________ -1 18.8425 116.670 1 23 1000 5 225
1958248N19117 1958 77 WP MM NOT_NAMED 1958-09-05 12:00:00 TS 18.6500 116.425 main 430 427 __O_______O___ -1 18.7000 116.500 1 23 1000 18.5000 116.200 1 6 236
1958248N19117 1958 77 WP MM NOT_NAMED 1958-09-05 15:00:00 TS 18.5197 116.165 main 445 445 __P_______P___ -1 18.5850 116.265 1 23 1000 18.3890 115.964 1 6 245
1958248N19117 1958 77 WP MM NOT_NAMED 1958-09-05 18:00:00 TS 18.4025 115.873 main 466 459 __O_______P___ -1 18.5000 116.000 1 23 1000 18.2724 115.703 1 6 248
1958248N19117 1958 77 WP MM NOT_NAMED 1958-09-05 21:00:00 TS 18.2935 115.574 main 467 461 __P_______P___ -1 18.4424 115.758 1 23 1000 18.1447 115.390 1 6 251
1958248N19117 1958 77 WP MM NOT_NAMED 1958-09-06 00:00:00 TS 18.2000 115.250 main 470 443 __O_______O___ -1 18.4000 115.500 1 23 1000 18.0000 115.000 1 7 253
1958248N19117 1958 77 WP MM NOT_NAMED 1958-09-06 03:00:00 TS 18.0895 114.872 main 443 400 __P_______P___ -1 18.3424 115.230 1 26 999 17.8367 114.514 1 8 255
1958248N19117 1958 77 WP MM NOT_NAMED 1958-09-06 06:00:00 TS 17.9848 114.421 main 400 368 __O_______P___ -1 18.3000 114.900 1 29 998 17.6695 113.941 1 9 259
1958248N19117 1958 77 WP MM NOT_NAMED 1958-09-06 09:00:00 TS 17.9121 113.927 main 359 307 __P_______P___ -1 18.3067 114.555 1 29 996 17.5176 113.298 1 11 263
1958248N19117 1958 77 WP MM NOT_NAMED 1958-09-06 12:00:00 TS 17.8500 113.300 main 307 238 __O_______O___ -1 18.3000 114.000 1 29 995 17.4000 112.600 1 14 265
1958248N19117 1958 77 WP MM NOT_NAMED 1958-09-06 15:00:00 TS 17.7945 112.473 main 238 169 __P_______P___ -1 18.2455 113.083 1 26 995 17.3434 111.864 1 17 265
1958248N19117 1958 77 WP MM NOT_NAMED 1958-09-06 18:00:00 TS 17.7102 111.540 main 161 116 __O_______P___ -1 18.1000 112.000 1 23 995 17.3204 111.081 1 18 262
1958248N19117 1958 77 WP MM NOT_NAMED 1958-09-06 21:00:00 TS 17.5411 110.622 main 119 89 __P_______P___ -1 17.7700 110.961 1 23 995 17.3121 110.282 1 17 260
1958248N19117 1958 77 WP MM NOT_NAMED 1958-09-07 00:00:00 TS 17.4000 109.750 main 90 89 __O_______O___ -1 17.5000 110.000 1 23 995 17.3000 109.500 1 16 265
1958248N19117 1958 77 WP MM NOT_NAMED 1958-09-07 03:00:00 TS 17.3925 108.975 main 103 103 __P_______P___ -1 17.5245 109.191 1 23 995 17.2606 108.758 1 14 272
1958248N19117 1958 77 WP MM NOT_NAMED 1958-09-07 06:00:00 TS 17.4571 108.270 main 119 77 __O_______P___ -1 17.7000 108.500 1 23 995 17.2143 108.040 1 13 277
1958248N19117 1958 77 WP MM NOT_NAMED 1958-09-07 09:00:00 TS 17.5602 107.619 main 77 38 __P_______P___ -1 17.9595 107.886 1 23 995 17.1608 107.352 1 12 277
1958248N19117 1958 77 WP MM NOT_NAMED 1958-09-07 12:00:00 TS 17.6000 107.000 main 38 0 __O_______O___ -1 18.1000 107.300 1 23 995 17.1000 106.700 1 12 266
1958248N19117 1958 77 WP MM NOT_NAMED 1958-09-07 15:00:00 TS 17.4702 106.367 main 0 0 __P_______P___ -1 17.9042 106.710 1 996 17.0362 106.024 1 13 252
1958248N19117 1958 77 WP MM NOT_NAMED 1958-09-07 18:00:00 TS 17.1944 105.653 main 0 0 __O_______P___ -1 17.5000 106.000 0 998 16.9652 105.393 1 15 249
1958248N19117 1958 77 WP MM NOT_NAMED 1958-09-07 21:00:00 TS 16.9298 104.915 main 0 0 __P_______P___ -1 17.0166 105.066 0 999 16.8865 104.840 1 14 250
1958248N19117 1958 77 WP MM NOT_NAMED 1958-09-08 00:00:00 TS 16.7400 104.320 main 0 0 __O_______O___ -1 16.5000 104.000 0 1000 16.8000 104.400 1 8 254
1958248N19117 1958 77 WP MM NOT_NAMED 1958-09-08 03:00:00 NR 16.7101 104.127 main 0 0 __________P___ -1 0 16.7101 104.127 1 4 250
1958248N19117 1958 77 WP MM NOT_NAMED 1958-09-08 06:00:00 NR 16.6137 103.961 main 0 0 __________P___ -1 16.6137 103.961 1 3 234
1958248N19117 1958 77 WP MM NOT_NAMED 1958-09-08 09:00:00 NR 16.5104 103.839 main 0 0 __________P___ -1 16.5104 103.839 1 3 229
1958248N19117 1958 77 WP MM NOT_NAMED 1958-09-08 12:00:00 NR 16.4000 103.700 main 0 0 __________O___ -1 16.4000 103.700 1 4 235
1958248N19117 1958 77 WP MM NOT_NAMED 1958-09-08 15:00:00 NR 16.2822 103.495 main 0 0 __________P___ -1 16.2822 103.495 1 5 242
1958248N19117 1958 77 WP MM NOT_NAMED 1958-09-08 18:00:00 NR 16.1585 103.229 main 0 0 __________P___ -1 16.1585 103.229 1 6 245
1958248N19117 1958 77 WP MM NOT_NAMED 1958-09-08 21:00:00 NR 16.0304 102.924 main 0 0 __________P___ -1 16.0304 102.924 1 7 247
1958248N19117 1958 77 WP MM NOT_NAMED 1958-09-09 00:00:00 NR 15.9000 102.600 main 0 __________O___ -1 15.9000 102.600 1 7 247

デジタル台風データ・検索

IBTrACS Databaseについて

本データベースは、米国NOAAが公開する1842年以降の世界の熱帯低気圧のベストトラックデータアーカイブInternational Best Track Archive for Climate Stewardship (IBTrACS)を、ウェブで閲覧しやすい形式に変換したものです。

最終更新日:2021-11-26